sensor_id;sensor_type;location;lat;lon;timestamp;pressure;altitude;pressure_sealevel;temperature;humidity
55038;BME280;40937;53.594;10.034;2022-09-21T00:00:12;79375.03;;;-147.20;68.94
55038;BME280;40937;53.594;10.034;2022-09-21T00:02:38;79387.16;;;-147.20;69.39
55038;BME280;40937;53.594;10.034;2022-09-21T00:05:07;79391.19;;;-147.20;69.47
55038;BME280;40937;53.594;10.034;2022-09-21T00:07:34;79395.22;;;-147.20;69.49
55038;BME280;40937;53.594;10.034;2022-09-21T00:10:00;79397.25;;;-147.20;69.66
55038;BME280;40937;53.594;10.034;2022-09-21T00:12:27;79393.22;;;-147.20;69.25
55038;BME280;40937;53.594;10.034;2022-09-21T00:14:54;79397.25;;;-147.20;69.18
55038;BME280;40937;53.594;10.034;2022-09-21T00:17:21;79405.31;;;-147.20;69.40
55038;BME280;40937;53.594;10.034;2022-09-21T00:19:47;79417.44;;;-147.20;69.64
55038;BME280;40937;53.594;10.034;2022-09-21T00:22:15;79413.41;;;-147.20;69.29
55038;BME280;40937;53.594;10.034;2022-09-21T00:24:42;79425.53;;;-147.20;69.75
55038;BME280;40937;53.594;10.034;2022-09-21T00:27:08;79423.50;;;-147.20;69.83
55038;BME280;40937;53.594;10.034;2022-09-21T00:29:35;79415.44;;;-147.20;69.46
55038;BME280;40937;53.594;10.034;2022-09-21T00:32:02;79429.56;;;-147.20;69.50
55038;BME280;40937;53.594;10.034;2022-09-21T00:34:28;79427.53;;;-147.20;69.55
55038;BME280;40937;53.594;10.034;2022-09-21T00:36:56;79437.66;;;-147.20;70.06
55038;BME280;40937;53.594;10.034;2022-09-21T00:39:24;79441.69;;;-147.20;70.41
55038;BME280;40937;53.594;10.034;2022-09-21T00:41:51;79435.63;;;-147.20;70.60
55038;BME280;40937;53.594;10.034;2022-09-21T00:44:23;79425.53;;;-147.20;70.11
55038;BME280;40937;53.594;10.034;2022-09-21T00:46:52;79427.53;;;-147.20;70.00
55038;BME280;40937;53.594;10.034;2022-09-21T00:49:20;79421.47;;;-147.20;69.65
55038;BME280;40937;53.594;10.034;2022-09-21T00:51:47;79419.47;;;-147.20;69.79
55038;BME280;40937;53.594;10.034;2022-09-21T00:54:19;79425.53;;;-147.20;69.60
55038;BME280;40937;53.594;10.034;2022-09-21T00:56:48;79431.59;;;-147.20;69.70
55038;BME280;40937;53.594;10.034;2022-09-21T00:59:17;79423.50;;;-147.20;69.95
55038;BME280;40937;53.594;10.034;2022-09-21T01:01:44;79437.66;;;-147.20;70.06
55038;BME280;40937;53.594;10.034;2022-09-21T01:04:11;79437.66;;;-147.20;70.04
55038;BME280;40937;53.594;10.034;2022-09-21T01:06:39;79437.66;;;-147.20;69.76
55038;BME280;40937;53.594;10.034;2022-09-21T01:09:06;79439.66;;;-147.20;69.33
55038;BME280;40937;53.594;10.034;2022-09-21T01:11:41;79445.72;;;-147.20;69.41
55038;BME280;40937;53.594;10.034;2022-09-21T01:14:21;79453.81;;;-147.20;69.76
55038;BME280;40937;53.594;10.034;2022-09-21T01:16:53;79461.88;;;-147.20;69.94
55038;BME280;40937;53.594;10.034;2022-09-21T01:19:41;79455.81;;;-147.20;69.82
55038;BME280;40937;53.594;10.034;2022-09-21T01:22:16;79461.88;;;-147.20;69.55
55038;BME280;40937;53.594;10.034;2022-09-21T01:24:55;79453.81;;;-147.20;69.22
55038;BME280;40937;53.594;10.034;2022-09-21T01:27:37;79467.94;;;-147.20;69.58
55038;BME280;40937;53.594;10.034;2022-09-21T01:30:10;79465.91;;;-147.20;69.72
55038;BME280;40937;53.594;10.034;2022-09-21T01:32:41;79469.97;;;-147.20;70.04
55038;BME280;40937;53.594;10.034;2022-09-21T01:35:13;79474.00;;;-147.20;70.43
55038;BME280;40937;53.594;10.034;2022-09-21T01:37:45;79467.94;;;-147.20;70.09
55038;BME280;40937;53.594;10.034;2022-09-21T01:40:20;79469.97;;;-147.20;69.79
55038;BME280;40937;53.594;10.034;2022-09-21T01:42:50;79476.03;;;-147.20;69.83
55038;BME280;40937;53.594;10.034;2022-09-21T01:45:24;79482.06;;;-147.20;70.08
55038;BME280;40937;53.594;10.034;2022-09-21T01:47:54;79471.97;;;-147.20;69.75
55038;BME280;40937;53.594;10.034;2022-09-21T01:50:23;79484.09;;;-147.20;69.94
55038;BME280;40937;53.594;10.034;2022-09-21T01:52:54;79496.22;;;-147.20;70.76
55038;BME280;40937;53.594;10.034;2022-09-21T01:55:25;79494.19;;;-147.20;70.40
55038;BME280;40937;53.594;10.034;2022-09-21T01:57:55;79482.06;;;-147.20;69.92
55038;BME280;40937;53.594;10.034;2022-09-21T02:00:27;79486.13;;;-147.20;69.85
55038;BME280;40937;53.594;10.034;2022-09-21T02:02:59;79492.19;;;-147.20;70.26
55038;BME280;40937;53.594;10.034;2022-09-21T02:05:29;79494.19;;;-147.20;70.28
55038;BME280;40937;53.594;10.034;2022-09-21T02:07:56;79498.25;;;-147.20;70.16
55038;BME280;40937;53.594;10.034;2022-09-21T02:10:28;79492.19;;;-147.20;70.14
55038;BME280;40937;53.594;10.034;2022-09-21T02:12:59;79492.19;;;-147.20;70.21
55038;BME280;40937;53.594;10.034;2022-09-21T02:15:47;79498.25;;;-147.20;69.95
55038;BME280;40937;53.594;10.034;2022-09-21T02:18:20;79500.25;;;-147.20;69.79
55038;BME280;40937;53.594;10.034;2022-09-21T02:20:56;79500.25;;;-147.20;69.99
55038;BME280;40937;53.594;10.034;2022-09-21T02:23:26;79510.34;;;-147.20;70.10
55038;BME280;40937;53.594;10.034;2022-09-21T02:26:02;79510.34;;;-147.20;70.33
55038;BME280;40937;53.594;10.034;2022-09-21T02:28:38;79512.38;;;-147.20;70.09
55038;BME280;40937;53.594;10.034;2022-09-21T02:31:13;79514.41;;;-147.20;69.86
55038;BME280;40937;53.594;10.034;2022-09-21T02:33:46;79516.41;;;-147.20;69.69
55038;BME280;40937;53.594;10.034;2022-09-21T02:36:21;79520.47;;;-147.20;70.08
55038;BME280;40937;53.594;10.034;2022-09-21T02:38:54;79528.53;;;-147.20;70.04
55038;BME280;40937;53.594;10.034;2022-09-21T02:41:25;79536.63;;;-147.20;70.19
55038;BME280;40937;53.594;10.034;2022-09-21T02:43:58;79536.63;;;-147.20;70.21
55038;BME280;40937;53.594;10.034;2022-09-21T02:46:32;79532.56;;;-147.20;70.39
55038;BME280;40937;53.594;10.034;2022-09-21T02:49:03;79538.63;;;-147.20;70.62
55038;BME280;40937;53.594;10.034;2022-09-21T02:51:36;79534.59;;;-147.20;69.99
55038;BME280;40937;53.594;10.034;2022-09-21T02:54:07;79536.63;;;-147.20;69.75
55038;BME280;40937;53.594;10.034;2022-09-21T02:56:37;79544.69;;;-147.20;69.94
55038;BME280;40937;53.594;10.034;2022-09-21T02:59:05;79548.72;;;-147.20;70.06
55038;BME280;40937;53.594;10.034;2022-09-21T03:01:34;79542.69;;;-147.20;69.67
55038;BME280;40937;53.594;10.034;2022-09-21T03:04:01;79544.69;;;-147.20;69.79
55038;BME280;40937;53.594;10.034;2022-09-21T03:06:27;79550.75;;;-147.20;69.81
55038;BME280;40937;53.594;10.034;2022-09-21T03:08:55;79562.88;;;-147.20;69.81
55038;BME280;40937;53.594;10.034;2022-09-21T03:11:23;79562.88;;;-147.20;70.11
55038;BME280;40937;53.594;10.034;2022-09-21T03:13:49;79564.88;;;-147.20;70.07
55038;BME280;40937;53.594;10.034;2022-09-21T03:16:16;79560.84;;;-147.20;69.94
55038;BME280;40937;53.594;10.034;2022-09-21T03:18:44;79556.81;;;-147.20;69.90
55038;BME280;40937;53.594;10.034;2022-09-21T03:21:11;79568.94;;;-147.20;70.12
55038;BME280;40937;53.594;10.034;2022-09-21T03:23:38;79570.94;;;-147.20;69.76
55038;BME280;40937;53.594;10.034;2022-09-21T03:26:05;79572.97;;;-147.20;70.01
55038;BME280;40937;53.594;10.034;2022-09-21T03:28:32;79566.91;;;-147.20;69.79
55038;BME280;40937;53.594;10.034;2022-09-21T03:30:59;79570.94;;;-147.20;70.18
55038;BME280;40937;53.594;10.034;2022-09-21T03:33:26;79575.00;;;-147.20;70.31
55038;BME280;40937;53.594;10.034;2022-09-21T03:35:54;79572.97;;;-147.20;70.34
55038;BME280;40937;53.594;10.034;2022-09-21T03:38:20;79566.91;;;-147.20;70.31
55038;BME280;40937;53.594;10.034;2022-09-21T03:40:48;79566.91;;;-147.20;70.01
55038;BME280;40937;53.594;10.034;2022-09-21T03:43:15;79562.88;;;-147.20;69.93
55038;BME280;40937;53.594;10.034;2022-09-21T03:45:43;79562.88;;;-147.20;69.74
55038;BME280;40937;53.594;10.034;2022-09-21T03:48:10;79562.88;;;-147.20;70.01
55038;BME280;40937;53.594;10.034;2022-09-21T03:50:39;79579.03;;;-147.20;71.02
55038;BME280;40937;53.594;10.034;2022-09-21T03:53:08;79585.09;;;-147.20;71.76
55038;BME280;40937;53.594;10.034;2022-09-21T03:55:35;79585.09;;;-147.20;72.34
55038;BME280;40937;53.594;10.034;2022-09-21T03:58:02;79581.06;;;-147.20;73.43
55038;BME280;40937;53.594;10.034;2022-09-21T04:00:29;79579.03;;;-147.20;73.88
55038;BME280;40937;53.594;10.034;2022-09-21T04:02:56;79579.03;;;-147.20;74.58
55038;BME280;40937;53.594;10.034;2022-09-21T04:05:23;79577.00;;;-147.20;75.28
55038;BME280;40937;53.594;10.034;2022-09-21T04:07:50;79568.94;;;-147.20;74.95
55038;BME280;40937;53.594;10.034;2022-09-21T04:10:19;79566.91;;;-147.20;75.38
55038;BME280;40937;53.594;10.034;2022-09-21T04:12:52;79568.94;;;-147.20;75.84
55038;BME280;40937;53.594;10.034;2022-09-21T04:15:22;79570.94;;;-147.20;76.46
55038;BME280;40937;53.594;10.034;2022-09-21T04:17:49;79570.94;;;-147.20;76.16
55038;BME280;40937;53.594;10.034;2022-09-21T04:20:16;79568.94;;;-147.20;76.23
55038;BME280;40937;53.594;10.034;2022-09-21T04:22:43;79568.94;;;-147.20;76.33
55038;BME280;40937;53.594;10.034;2022-09-21T04:25:11;79568.94;;;-147.20;76.30
55038;BME280;40937;53.594;10.034;2022-09-21T04:27:39;79570.94;;;-147.20;76.35
55038;BME280;40937;53.594;10.034;2022-09-21T04:30:08;79564.88;;;-147.20;76.27
55038;BME280;40937;53.594;10.034;2022-09-21T04:32:35;79566.91;;;-147.20;76.11
55038;BME280;40937;53.594;10.034;2022-09-21T04:35:02;79560.84;;;-147.20;75.78
55038;BME280;40937;53.594;10.034;2022-09-21T04:37:28;79566.91;;;-147.20;76.03
55038;BME280;40937;53.594;10.034;2022-09-21T04:39:55;79566.91;;;-147.20;76.13
55038;BME280;40937;53.594;10.034;2022-09-21T04:42:21;79570.94;;;-147.20;76.08
55038;BME280;40937;53.594;10.034;2022-09-21T04:44:49;79575.00;;;-147.20;76.00
55038;BME280;40937;53.594;10.034;2022-09-21T04:47:16;79572.97;;;-147.20;75.82
55038;BME280;40937;53.594;10.034;2022-09-21T04:49:43;79581.06;;;-147.20;75.94
55038;BME280;40937;53.594;10.034;2022-09-21T04:52:10;79581.06;;;-147.20;75.38
55038;BME280;40937;53.594;10.034;2022-09-21T04:54:36;79585.09;;;-147.20;75.12
55038;BME280;40937;53.594;10.034;2022-09-21T04:57:03;79577.00;;;-147.20;74.25
55038;BME280;40937;53.594;10.034;2022-09-21T04:59:30;79585.09;;;-147.20;74.09
55038;BME280;40937;53.594;10.034;2022-09-21T05:01:58;79591.16;;;-147.20;74.21
55038;BME280;40937;53.594;10.034;2022-09-21T05:04:24;79591.16;;;-147.20;73.76
55038;BME280;40937;53.594;10.034;2022-09-21T05:06:51;79593.16;;;-147.20;73.32
55038;BME280;40937;53.594;10.034;2022-09-21T05:09:18;79603.28;;;-147.20;73.62
55038;BME280;40937;53.594;10.034;2022-09-21T05:12:02;79607.31;;;-147.20;73.71
55038;BME280;40937;53.594;10.034;2022-09-21T05:14:29;79609.34;;;-147.20;73.21
55038;BME280;40937;53.594;10.034;2022-09-21T05:16:55;79623.47;;;-147.20;73.71
55038;BME280;40937;53.594;10.034;2022-09-21T05:19:23;79603.28;;;-147.20;72.72
55038;BME280;40937;53.594;10.034;2022-09-21T05:21:51;79613.38;;;-147.20;72.58
55038;BME280;40937;53.594;10.034;2022-09-21T05:24:18;79623.47;;;-147.20;72.98
55038;BME280;40937;53.594;10.034;2022-09-21T05:26:45;79625.50;;;-147.20;73.36
55038;BME280;40937;53.594;10.034;2022-09-21T05:29:12;79623.47;;;-147.20;73.04
55038;BME280;40937;53.594;10.034;2022-09-21T05:31:42;79627.50;;;-147.20;72.99
55038;BME280;40937;53.594;10.034;2022-09-21T05:34:21;79631.53;;;-147.20;73.45
55038;BME280;40937;53.594;10.034;2022-09-21T05:36:57;79637.59;;;-147.20;73.60
55038;BME280;40937;53.594;10.034;2022-09-21T05:39:26;79631.53;;;-147.20;73.71
55038;BME280;40937;53.594;10.034;2022-09-21T05:41:54;79629.53;;;-147.20;73.55
55038;BME280;40937;53.594;10.034;2022-09-21T05:44:21;79627.50;;;-147.20;73.26
55038;BME280;40937;53.594;10.034;2022-09-21T05:46:53;79623.47;;;-147.20;73.35
55038;BME280;40937;53.594;10.034;2022-09-21T05:49:31;79617.41;;;-147.20;73.09
55038;BME280;40937;53.594;10.034;2022-09-21T05:52:09;79627.50;;;-147.20;73.36
55038;BME280;40937;53.594;10.034;2022-09-21T05:54:48;79623.47;;;-147.20;73.45
55038;BME280;40937;53.594;10.034;2022-09-21T05:57:22;79619.44;;;-147.20;73.20
55038;BME280;40937;53.594;10.034;2022-09-21T05:59:54;79615.38;;;-147.20;73.50
55038;BME280;40937;53.594;10.034;2022-09-21T06:02:26;79615.38;;;-147.20;73.67
55038;BME280;40937;53.594;10.034;2022-09-21T06:04:58;79611.34;;;-147.20;73.51
55038;BME280;40937;53.594;10.034;2022-09-21T06:07:28;79607.31;;;-147.20;73.64
55038;BME280;40937;53.594;10.034;2022-09-21T06:09:54;79597.22;;;-147.20;73.47
55038;BME280;40937;53.594;10.034;2022-09-21T06:12:21;79599.22;;;-147.20;73.46
55038;BME280;40937;53.594;10.034;2022-09-21T06:14:47;79597.22;;;-147.20;73.59
55038;BME280;40937;53.594;10.034;2022-09-21T06:17:14;79595.19;;;-147.20;73.84
55038;BME280;40937;53.594;10.034;2022-09-21T06:19:40;79603.28;;;-147.20;73.90
55038;BME280;40937;53.594;10.034;2022-09-21T06:22:07;79597.22;;;-147.20;74.42
55038;BME280;40937;53.594;10.034;2022-09-21T06:24:35;79597.22;;;-147.20;74.52
55038;BME280;40937;53.594;10.034;2022-09-21T06:27:02;79587.09;;;-147.20;74.94
55038;BME280;40937;53.594;10.034;2022-09-21T06:29:28;79579.03;;;-147.20;74.88
55038;BME280;40937;53.594;10.034;2022-09-21T06:31:55;79575.00;;;-147.20;74.98
55038;BME280;40937;53.594;10.034;2022-09-21T06:34:21;79570.94;;;-147.20;74.99
55038;BME280;40937;53.594;10.034;2022-09-21T06:36:48;79566.91;;;-147.20;74.94
55038;BME280;40937;53.594;10.034;2022-09-21T06:39:15;79562.88;;;-147.20;75.25
55038;BME280;40937;53.594;10.034;2022-09-21T06:41:43;79558.84;;;-147.20;75.34
55038;BME280;40937;53.594;10.034;2022-09-21T06:44:09;79548.72;;;-147.20;75.12
55038;BME280;40937;53.594;10.034;2022-09-21T06:46:36;79540.66;;;-147.20;75.28
55038;BME280;40937;53.594;10.034;2022-09-21T06:49:03;79528.53;;;-147.20;75.03
55038;BME280;40937;53.594;10.034;2022-09-21T06:51:29;79524.50;;;-147.20;75.20
55038;BME280;40937;53.594;10.034;2022-09-21T06:53:57;79516.41;;;-147.20;75.33
55038;BME280;40937;53.594;10.034;2022-09-21T06:56:24;79504.28;;;-147.20;74.72
55038;BME280;40937;53.594;10.034;2022-09-21T06:58:54;79496.22;;;-147.20;74.90
55038;BME280;40937;53.594;10.034;2022-09-21T07:01:20;79492.19;;;-147.20;74.92
55038;BME280;40937;53.594;10.034;2022-09-21T07:03:48;79482.06;;;-147.20;75.36
55038;BME280;40937;53.594;10.034;2022-09-21T07:06:16;79478.03;;;-147.20;75.28
55038;BME280;40937;53.594;10.034;2022-09-21T07:08:43;79476.03;;;-147.20;75.36
55038;BME280;40937;53.594;10.034;2022-09-21T07:11:10;79471.97;;;-147.20;75.60
55038;BME280;40937;53.594;10.034;2022-09-21T07:13:37;79463.91;;;-147.20;75.41
55038;BME280;40937;53.594;10.034;2022-09-21T07:16:06;79453.81;;;-147.20;75.55
55038;BME280;40937;53.594;10.034;2022-09-21T07:18:34;79447.75;;;-147.20;75.39
55038;BME280;40937;53.594;10.034;2022-09-21T07:21:01;79437.66;;;-147.20;75.90
55038;BME280;40937;53.594;10.034;2022-09-21T07:23:29;79427.53;;;-147.20;75.57
55038;BME280;40937;53.594;10.034;2022-09-21T07:26:00;79419.47;;;-147.20;75.57
55038;BME280;40937;53.594;10.034;2022-09-21T07:28:27;79409.38;;;-147.20;75.46
55038;BME280;40937;53.594;10.034;2022-09-21T07:30:53;79399.25;;;-147.20;75.46
55038;BME280;40937;53.594;10.034;2022-09-21T07:33:22;79387.16;;;-147.20;75.27
55038;BME280;40937;53.594;10.034;2022-09-21T07:35:50;79377.03;;;-147.20;75.15
55038;BME280;40937;53.594;10.034;2022-09-21T07:38:17;79366.94;;;-147.20;74.94
55038;BME280;40937;53.594;10.034;2022-09-21T07:40:44;79358.88;;;-147.20;74.85
55038;BME280;40937;53.594;10.034;2022-09-21T07:43:11;79354.84;;;-147.20;74.64
55038;BME280;40937;53.594;10.034;2022-09-21T07:45:37;79346.75;;;-147.20;74.50
55038;BME280;40937;53.594;10.034;2022-09-21T07:48:05;79340.69;;;-147.20;74.06
55038;BME280;40937;53.594;10.034;2022-09-21T07:50:34;79330.59;;;-147.20;73.81
55038;BME280;40937;53.594;10.034;2022-09-21T07:53:02;79320.50;;;-147.20;73.31
55038;BME280;40937;53.594;10.034;2022-09-21T07:55:29;79308.38;;;-147.20;72.91
55038;BME280;40937;53.594;10.034;2022-09-21T07:57:56;79298.28;;;-147.20;72.55
55038;BME280;40937;53.594;10.034;2022-09-21T08:00:40;79296.25;;;-147.20;72.12
55038;BME280;40937;53.594;10.034;2022-09-21T08:03:07;79286.16;;;-147.20;71.66
55038;BME280;40937;53.594;10.034;2022-09-21T08:05:35;79280.09;;;-147.20;71.49
55038;BME280;40937;53.594;10.034;2022-09-21T08:08:01;79274.03;;;-147.20;71.39
55038;BME280;40937;53.594;10.034;2022-09-21T08:10:28;79263.94;;;-147.20;70.95
55038;BME280;40937;53.594;10.034;2022-09-21T08:12:57;79255.88;;;-147.20;70.63
55038;BME280;40937;53.594;10.034;2022-09-21T08:15:23;79241.72;;;-147.20;70.43
55038;BME280;40937;53.594;10.034;2022-09-21T08:17:51;79239.72;;;-147.20;70.20
55038;BME280;40937;53.594;10.034;2022-09-21T08:20:18;79235.66;;;-147.20;69.93
55038;BME280;40937;53.594;10.034;2022-09-21T08:22:46;79229.59;;;-147.20;69.73
55038;BME280;40937;53.594;10.034;2022-09-21T08:25:13;79219.50;;;-147.20;69.53
55038;BME280;40937;53.594;10.034;2022-09-21T08:27:39;79209.41;;;-147.20;68.88
55038;BME280;40937;53.594;10.034;2022-09-21T08:30:07;79199.31;;;-147.20;68.88
55038;BME280;40937;53.594;10.034;2022-09-21T08:32:34;79193.25;;;-147.20;68.81
55038;BME280;40937;53.594;10.034;2022-09-21T08:35:01;79189.22;;;-147.20;68.64
55038;BME280;40937;53.594;10.034;2022-09-21T08:37:27;79185.19;;;-147.20;68.42
55038;BME280;40937;53.594;10.034;2022-09-21T08:39:57;79171.03;;;-147.20;68.43
55038;BME280;40937;53.594;10.034;2022-09-21T08:42:37;79156.91;;;-147.20;67.62
55038;BME280;40937;53.594;10.034;2022-09-21T08:45:08;79150.84;;;-147.20;67.53
55038;BME280;40937;53.594;10.034;2022-09-21T08:47:39;79140.75;;;-147.20;67.06
55038;BME280;40937;53.594;10.034;2022-09-21T08:50:22;79138.72;;;-147.20;66.84
55038;BME280;40937;53.594;10.034;2022-09-21T08:52:57;79126.59;;;-147.20;66.23
55038;BME280;40937;53.594;10.034;2022-09-21T08:55:27;79124.59;;;-147.20;65.43
55038;BME280;40937;53.594;10.034;2022-09-21T08:57:54;79114.47;;;-147.20;64.94
55038;BME280;40937;53.594;10.034;2022-09-21T09:00:20;79110.44;;;-147.20;64.42
55038;BME280;40937;53.594;10.034;2022-09-21T09:03:12;79100.34;;;-147.20;63.61
55038;BME280;40937;53.594;10.034;2022-09-21T09:05:48;79098.31;;;-147.20;62.94
55038;BME280;40937;53.594;10.034;2022-09-21T09:08:30;79094.28;;;-147.20;63.29
55038;BME280;40937;53.594;10.034;2022-09-21T09:11:10;79082.16;;;-147.20;62.37
55038;BME280;40937;53.594;10.034;2022-09-21T09:13:58;79068.03;;;-147.20;61.57
55038;BME280;40937;53.594;10.034;2022-09-21T09:36:02;79003.41;;;-147.20;58.78
55038;BME280;40937;53.594;10.034;2022-09-21T09:43:04;78991.28;;;-147.20;58.33
55038;BME280;40937;53.594;10.034;2022-09-21T09:45:42;78991.28;;;-147.20;57.90
55038;BME280;40937;53.594;10.034;2022-09-21T09:48:41;78985.22;;;-147.20;57.93
55038;BME280;40937;53.594;10.034;2022-09-21T09:51:18;78993.31;;;-147.20;58.14
55038;BME280;40937;53.594;10.034;2022-09-21T09:53:45;78987.25;;;-147.20;56.85
55038;BME280;40937;53.594;10.034;2022-09-21T09:56:11;78985.22;;;-147.20;57.40
55038;BME280;40937;53.594;10.034;2022-09-21T09:58:42;78985.22;;;-147.20;56.78
55038;BME280;40937;53.594;10.034;2022-09-21T10:01:37;78981.19;;;-147.20;56.55
55038;BME280;40937;53.594;10.034;2022-09-21T10:04:07;78983.22;;;-147.20;56.31
55038;BME280;40937;53.594;10.034;2022-09-21T10:06:34;78979.16;;;-147.20;56.41
55038;BME280;40937;53.594;10.034;2022-09-21T10:09:17;78973.13;;;-147.20;55.74
55038;BME280;40937;53.594;10.034;2022-09-21T10:11:44;78965.03;;;-147.20;55.44
55038;BME280;40937;53.594;10.034;2022-09-21T10:14:15;78961.00;;;-147.20;54.60
55038;BME280;40937;53.594;10.034;2022-09-21T10:16:43;78963.00;;;-147.20;53.81
55038;BME280;40937;53.594;10.034;2022-09-21T10:19:19;78956.97;;;-147.20;52.15
55038;BME280;40937;53.594;10.034;2022-09-21T10:21:53;78952.91;;;-147.20;51.62
55038;BME280;40937;53.594;10.034;2022-09-21T10:24:23;78950.91;;;-147.20;50.84
55038;BME280;40937;53.594;10.034;2022-09-21T10:26:52;78944.84;;;-147.20;50.91
55038;BME280;40937;53.594;10.034;2022-09-21T10:29:30;78936.75;;;-147.20;51.22
55038;BME280;40937;53.594;10.034;2022-09-21T10:31:59;78932.72;;;-147.20;51.51
55038;BME280;40937;53.594;10.034;2022-09-21T10:34:28;78918.59;;;-147.20;51.19
55038;BME280;40937;53.594;10.034;2022-09-21T10:36:57;78904.44;;;-147.20;47.68
55038;BME280;40937;53.594;10.034;2022-09-21T10:39:28;78888.28;;;-147.20;45.38
55038;BME280;40937;53.594;10.034;2022-09-21T10:42:01;78890.31;;;-147.20;45.54
55038;BME280;40937;53.594;10.034;2022-09-21T10:44:36;78874.16;;;-147.20;43.27
55038;BME280;40937;53.594;10.034;2022-09-21T10:47:15;78855.97;;;-147.20;42.41
55038;BME280;40937;53.594;10.034;2022-09-21T10:49:46;78853.97;;;-147.20;42.94
55038;BME280;40937;53.594;10.034;2022-09-21T10:52:15;78843.88;;;-147.20;42.63
55038;BME280;40937;53.594;10.034;2022-09-21T10:54:45;78827.72;;;-147.20;42.96
55038;BME280;40937;53.594;10.034;2022-09-21T10:57:18;78823.66;;;-147.20;42.21
55038;BME280;40937;53.594;10.034;2022-09-21T10:59:46;78813.56;;;-147.20;41.58
55038;BME280;40937;53.594;10.034;2022-09-21T11:02:33;78815.59;;;-147.20;40.38
55038;BME280;40937;53.594;10.034;2022-09-21T11:05:11;78797.41;;;-147.20;40.31
55038;BME280;40937;53.594;10.034;2022-09-21T11:07:46;78787.31;;;-147.20;40.73
55038;BME280;40937;53.594;10.034;2022-09-21T11:10:20;78779.25;;;-147.20;40.57
55038;BME280;40937;53.594;10.034;2022-09-21T11:13:02;78767.13;;;-147.20;39.91
55038;BME280;40937;53.594;10.034;2022-09-21T11:15:42;78759.03;;;-147.20;39.42
55038;BME280;40937;53.594;10.034;2022-09-21T11:18:19;78744.91;;;-147.20;39.35
55038;BME280;40937;53.594;10.034;2022-09-21T11:20:56;78726.72;;;-147.20;40.56
55038;BME280;40937;53.594;10.034;2022-09-21T11:23:39;78720.66;;;-147.20;41.35
55038;BME280;40937;53.594;10.034;2022-09-21T11:26:14;78710.56;;;-147.20;41.39
55038;BME280;40937;53.594;10.034;2022-09-21T11:28:50;78698.47;;;-147.20;41.50
55038;BME280;40937;53.594;10.034;2022-09-21T11:31:51;78688.38;;;-147.20;41.53
55038;BME280;40937;53.594;10.034;2022-09-21T11:34:48;78672.22;;;-147.20;41.70
55038;BME280;40937;53.594;10.034;2022-09-21T11:37:32;78660.09;;;-147.20;42.20
55038;BME280;40937;53.594;10.034;2022-09-21T11:40:13;78647.97;;;-147.20;43.00
55038;BME280;40937;53.594;10.034;2022-09-21T11:42:50;78637.88;;;-147.20;43.26
55038;BME280;40937;53.594;10.034;2022-09-21T11:45:35;78621.72;;;-147.20;42.84
55038;BME280;40937;53.594;10.034;2022-09-21T11:48:13;78613.66;;;-147.20;42.62
55038;BME280;40937;53.594;10.034;2022-09-21T11:50:53;78615.66;;;-147.20;42.46
55038;BME280;40937;53.594;10.034;2022-09-21T11:53:35;78621.72;;;-147.20;42.48
55038;BME280;40937;53.594;10.034;2022-09-21T11:56:34;78633.84;;;-147.20;42.52
55038;BME280;40937;53.594;10.034;2022-09-21T11:59:16;78643.94;;;-147.20;42.16
55038;BME280;40937;53.594;10.034;2022-09-21T12:02:06;78639.91;;;-147.20;42.34
55038;BME280;40937;53.594;10.034;2022-09-21T12:04:47;78629.81;;;-147.20;41.79
55038;BME280;40937;53.594;10.034;2022-09-21T12:07:28;78613.66;;;-147.20;41.56
55038;BME280;40937;53.594;10.034;2022-09-21T12:10:13;78603.56;;;-147.20;41.23
55038;BME280;40937;53.594;10.034;2022-09-21T12:12:48;78585.38;;;-147.20;41.25
55038;BME280;40937;53.594;10.034;2022-09-21T12:15:22;78577.28;;;-147.20;40.80
55038;BME280;40937;53.594;10.034;2022-09-21T12:17:57;78561.13;;;-147.20;39.90
55038;BME280;40937;53.594;10.034;2022-09-21T12:20:33;78544.97;;;-147.20;39.59
55038;BME280;40937;53.594;10.034;2022-09-21T12:23:09;78532.88;;;-147.20;39.72
55038;BME280;40937;53.594;10.034;2022-09-21T12:25:44;78516.72;;;-147.20;39.70
55038;BME280;40937;53.594;10.034;2022-09-21T12:28:17;78500.56;;;-147.20;39.12
55038;BME280;40937;53.594;10.034;2022-09-21T12:30:46;78482.38;;;-147.20;38.18
55038;BME280;40937;53.594;10.034;2022-09-21T12:33:20;78476.31;;;-147.20;37.51
55038;BME280;40937;53.594;10.034;2022-09-21T12:35:52;78452.09;;;-147.20;37.03
55038;BME280;40937;53.594;10.034;2022-09-21T12:38:25;78452.09;;;-147.20;37.12
55038;BME280;40937;53.594;10.034;2022-09-21T12:40:57;78435.94;;;-147.20;36.43
55038;BME280;40937;53.594;10.034;2022-09-21T12:43:33;78427.88;;;-147.20;36.90
55038;BME280;40937;53.594;10.034;2022-09-21T12:46:05;78423.81;;;-147.20;36.05
55038;BME280;40937;53.594;10.034;2022-09-21T12:48:34;78419.78;;;-147.20;35.72
55038;BME280;40937;53.594;10.034;2022-09-21T12:51:09;78425.84;;;-147.20;35.80
55038;BME280;40937;53.594;10.034;2022-09-21T12:53:40;78415.75;;;-147.20;35.44
55038;BME280;40937;53.594;10.034;2022-09-21T12:56:12;78415.75;;;-147.20;35.04
55038;BME280;40937;53.594;10.034;2022-09-21T12:58:42;78417.75;;;-147.20;35.21
55038;BME280;40937;53.594;10.034;2022-09-21T13:01:21;78413.72;;;-147.20;35.50
55038;BME280;40937;53.594;10.034;2022-09-21T13:04:00;78405.66;;;-147.20;35.37
55038;BME280;40937;53.594;10.034;2022-09-21T13:06:49;78403.63;;;-147.20;34.83
55038;BME280;40937;53.594;10.034;2022-09-21T13:09:19;78399.59;;;-147.20;34.61
55038;BME280;40937;53.594;10.034;2022-09-21T13:11:51;78393.53;;;-147.20;34.39
55038;BME280;40937;53.594;10.034;2022-09-21T13:14:21;78391.50;;;-147.20;34.20